sensor_id;sensor_type;location;lat;lon;timestamp;temperature;humidity
79065;DHT22;68469;51.502;7.462;2023-07-13T00:01:46;18.50;65.40
79065;DHT22;68469;51.502;7.462;2023-07-13T00:04:21;18.50;65.60
79065;DHT22;68469;51.502;7.462;2023-07-13T00:06:48;18.40;65.20
79065;DHT22;68469;51.502;7.462;2023-07-13T00:09:15;18.50;65.20
79065;DHT22;68469;51.502;7.462;2023-07-13T00:11:42;18.40;65.50
79065;DHT22;68469;51.502;7.462;2023-07-13T00:14:09;18.40;64.90
79065;DHT22;68469;51.502;7.462;2023-07-13T00:16:37;18.30;64.90
79065;DHT22;68469;51.502;7.462;2023-07-13T00:19:03;18.30;64.90
79065;DHT22;68469;51.502;7.462;2023-07-13T00:21:29;18.30;65.00
79065;DHT22;68469;51.502;7.462;2023-07-13T00:23:55;18.20;64.90
79065;DHT22;68469;51.502;7.462;2023-07-13T00:26:20;18.20;64.90
79065;DHT22;68469;51.502;7.462;2023-07-13T00:28:46;18.20;64.90
79065;DHT22;68469;51.502;7.462;2023-07-13T00:31:13;18.20;64.80
79065;DHT22;68469;51.502;7.462;2023-07-13T00:33:40;18.10;64.80
79065;DHT22;68469;51.502;7.462;2023-07-13T00:36:05;18.10;64.90
79065;DHT22;68469;51.502;7.462;2023-07-13T00:38:31;18.10;64.80
79065;DHT22;68469;51.502;7.462;2023-07-13T00:40:57;18.00;64.80
79065;DHT22;68469;51.502;7.462;2023-07-13T00:43:25;18.00;64.90
79065;DHT22;68469;51.502;7.462;2023-07-13T00:48:22;18.00;64.60
79065;DHT22;68469;51.502;7.462;2023-07-13T00:50:53;17.90;64.20
79065;DHT22;68469;51.502;7.462;2023-07-13T00:53:21;17.90;63.50
79065;DHT22;68469;51.502;7.462;2023-07-13T00:55:49;17.90;63.90
79065;DHT22;68469;51.502;7.462;2023-07-13T00:58:15;17.90;63.90
79065;DHT22;68469;51.502;7.462;2023-07-13T01:00:41;17.90;63.90
79065;DHT22;68469;51.502;7.462;2023-07-13T01:03:07;17.80;64.20
79065;DHT22;68469;51.502;7.462;2023-07-13T01:05:34;17.80;64.50
79065;DHT22;68469;51.502;7.462;2023-07-13T01:08:01;17.70;64.20
79065;DHT22;68469;51.502;7.462;2023-07-13T01:10:27;17.70;64.00
79065;DHT22;68469;51.502;7.462;2023-07-13T01:12:54;17.70;64.40
79065;DHT22;68469;51.502;7.462;2023-07-13T01:18:07;17.70;64.20
79065;DHT22;68469;51.502;7.462;2023-07-13T01:20:33;17.60;64.70
79065;DHT22;68469;51.502;7.462;2023-07-13T01:23:11;17.60;64.90
79065;DHT22;68469;51.502;7.462;2023-07-13T01:25:38;17.60;64.80
79065;DHT22;68469;51.502;7.462;2023-07-13T01:28:06;17.50;65.00
79065;DHT22;68469;51.502;7.462;2023-07-13T01:30:32;17.40;65.00
79065;DHT22;68469;51.502;7.462;2023-07-13T01:32:58;17.40;65.20
79065;DHT22;68469;51.502;7.462;2023-07-13T01:35:24;17.40;65.20
79065;DHT22;68469;51.502;7.462;2023-07-13T01:37:52;17.40;65.10
79065;DHT22;68469;51.502;7.462;2023-07-13T01:40:18;17.40;65.00
79065;DHT22;68469;51.502;7.462;2023-07-13T01:42:43;17.40;64.40
79065;DHT22;68469;51.502;7.462;2023-07-13T01:45:09;17.40;65.00
79065;DHT22;68469;51.502;7.462;2023-07-13T01:47:35;17.40;64.90
79065;DHT22;68469;51.502;7.462;2023-07-13T01:50:01;17.40;65.00
79065;DHT22;68469;51.502;7.462;2023-07-13T01:52:26;17.40;64.70
79065;DHT22;68469;51.502;7.462;2023-07-13T01:54:52;17.30;64.70
79065;DHT22;68469;51.502;7.462;2023-07-13T01:57:17;17.30;65.00
79065;DHT22;68469;51.502;7.462;2023-07-13T01:59:43;17.30;65.00
79065;DHT22;68469;51.502;7.462;2023-07-13T02:02:08;17.30;65.10
79065;DHT22;68469;51.502;7.462;2023-07-13T02:04:34;17.30;65.00
79065;DHT22;68469;51.502;7.462;2023-07-13T02:07:00;17.30;64.80
79065;DHT22;68469;51.502;7.462;2023-07-13T02:09:25;17.30;64.80
79065;DHT22;68469;51.502;7.462;2023-07-13T02:11:51;17.30;65.10
79065;DHT22;68469;51.502;7.462;2023-07-13T02:14:17;17.20;65.10
79065;DHT22;68469;51.502;7.462;2023-07-13T02:16:42;17.30;64.80
79065;DHT22;68469;51.502;7.462;2023-07-13T02:19:08;17.30;64.90
79065;DHT22;68469;51.502;7.462;2023-07-13T02:21:34;17.30;64.90
79065;DHT22;68469;51.502;7.462;2023-07-13T02:24:00;17.20;65.00
79065;DHT22;68469;51.502;7.462;2023-07-13T02:26:26;17.20;65.20
79065;DHT22;68469;51.502;7.462;2023-07-13T02:28:52;17.20;65.30
79065;DHT22;68469;51.502;7.462;2023-07-13T02:31:18;17.10;65.40
79065;DHT22;68469;51.502;7.462;2023-07-13T02:33:44;17.10;65.60
79065;DHT22;68469;51.502;7.462;2023-07-13T02:36:10;17.10;65.90
79065;DHT22;68469;51.502;7.462;2023-07-13T02:38:36;17.10;65.80
79065;DHT22;68469;51.502;7.462;2023-07-13T02:41:06;17.10;65.70
79065;DHT22;68469;51.502;7.462;2023-07-13T02:43:33;17.00;65.90
79065;DHT22;68469;51.502;7.462;2023-07-13T02:46:00;17.00;65.60
79065;DHT22;68469;51.502;7.462;2023-07-13T02:48:32;17.00;66.00
79065;DHT22;68469;51.502;7.462;2023-07-13T02:50:58;17.00;65.80
79065;DHT22;68469;51.502;7.462;2023-07-13T02:53:23;17.00;66.30
79065;DHT22;68469;51.502;7.462;2023-07-13T02:55:49;17.00;66.20
79065;DHT22;68469;51.502;7.462;2023-07-13T02:58:14;17.00;66.50
79065;DHT22;68469;51.502;7.462;2023-07-13T03:00:45;17.00;66.40
79065;DHT22;68469;51.502;7.462;2023-07-13T03:03:14;17.00;66.20
79065;DHT22;68469;51.502;7.462;2023-07-13T03:05:42;17.00;66.20
79065;DHT22;68469;51.502;7.462;2023-07-13T03:08:09;17.00;66.20
79065;DHT22;68469;51.502;7.462;2023-07-13T03:10:35;17.00;65.90
79065;DHT22;68469;51.502;7.462;2023-07-13T03:13:01;17.00;66.40
79065;DHT22;68469;51.502;7.462;2023-07-13T03:15:27;17.00;66.70
79065;DHT22;68469;51.502;7.462;2023-07-13T03:17:52;17.00;66.60
79065;DHT22;68469;51.502;7.462;2023-07-13T03:20:18;16.90;66.40
79065;DHT22;68469;51.502;7.462;2023-07-13T03:22:45;16.90;66.50
79065;DHT22;68469;51.502;7.462;2023-07-13T03:25:11;16.90;66.80
79065;DHT22;68469;51.502;7.462;2023-07-13T03:27:37;16.90;66.60
79065;DHT22;68469;51.502;7.462;2023-07-13T03:30:04;16.90;66.90
79065;DHT22;68469;51.502;7.462;2023-07-13T03:32:30;16.90;67.00
79065;DHT22;68469;51.502;7.462;2023-07-13T03:34:55;16.90;66.80
79065;DHT22;68469;51.502;7.462;2023-07-13T03:37:21;16.80;67.00
79065;DHT22;68469;51.502;7.462;2023-07-13T03:39:46;16.80;67.50
79065;DHT22;68469;51.502;7.462;2023-07-13T03:42:12;16.80;67.50
79065;DHT22;68469;51.502;7.462;2023-07-13T03:44:39;16.80;67.80
79065;DHT22;68469;51.502;7.462;2023-07-13T03:47:05;16.80;67.80
79065;DHT22;68469;51.502;7.462;2023-07-13T03:49:31;16.80;67.90
79065;DHT22;68469;51.502;7.462;2023-07-13T03:51:57;16.80;68.00
79065;DHT22;68469;51.502;7.462;2023-07-13T03:54:22;16.90;68.00
79065;DHT22;68469;51.502;7.462;2023-07-13T03:56:48;16.80;67.90
79065;DHT22;68469;51.502;7.462;2023-07-13T03:59:14;16.80;68.10
79065;DHT22;68469;51.502;7.462;2023-07-13T04:01:39;16.80;68.40
79065;DHT22;68469;51.502;7.462;2023-07-13T04:04:05;16.80;68.30
79065;DHT22;68469;51.502;7.462;2023-07-13T04:06:31;16.90;68.30
79065;DHT22;68469;51.502;7.462;2023-07-13T04:09:00;16.90;68.30
79065;DHT22;68469;51.502;7.462;2023-07-13T04:11:29;16.90;68.30
79065;DHT22;68469;51.502;7.462;2023-07-13T04:13:55;16.90;68.20
79065;DHT22;68469;51.502;7.462;2023-07-13T04:16:21;17.00;68.20
79065;DHT22;68469;51.502;7.462;2023-07-13T04:21:23;17.10;68.30
79065;DHT22;68469;51.502;7.462;2023-07-13T04:23:49;17.10;67.90
79065;DHT22;68469;51.502;7.462;2023-07-13T04:26:14;17.20;67.50
79065;DHT22;68469;51.502;7.462;2023-07-13T04:28:40;17.30;67.70
79065;DHT22;68469;51.502;7.462;2023-07-13T04:31:05;17.30;67.70
79065;DHT22;68469;51.502;7.462;2023-07-13T04:33:31;17.40;67.50
79065;DHT22;68469;51.502;7.462;2023-07-13T04:35:57;17.50;67.40
79065;DHT22;68469;51.502;7.462;2023-07-13T04:38:24;17.50;67.30
79065;DHT22;68469;51.502;7.462;2023-07-13T04:40:50;17.50;67.10
79065;DHT22;68469;51.502;7.462;2023-07-13T04:43:16;17.70;67.10
79065;DHT22;68469;51.502;7.462;2023-07-13T04:45:42;17.80;67.00
79065;DHT22;68469;51.502;7.462;2023-07-13T04:48:07;17.80;66.60
79065;DHT22;68469;51.502;7.462;2023-07-13T04:50:36;17.90;66.50
79065;DHT22;68469;51.502;7.462;2023-07-13T04:53:01;18.00;66.40
79065;DHT22;68469;51.502;7.462;2023-07-13T04:55:28;18.10;65.50
79065;DHT22;68469;51.502;7.462;2023-07-13T04:57:56;18.30;65.80
79065;DHT22;68469;51.502;7.462;2023-07-13T05:00:24;18.40;65.90
79065;DHT22;68469;51.502;7.462;2023-07-13T05:02:50;18.50;65.00
79065;DHT22;68469;51.502;7.462;2023-07-13T05:05:16;18.60;64.70
79065;DHT22;68469;51.502;7.462;2023-07-13T05:07:42;18.80;64.40
79065;DHT22;68469;51.502;7.462;2023-07-13T05:10:08;18.90;64.10
79065;DHT22;68469;51.502;7.462;2023-07-13T05:12:34;19.10;63.50
79065;DHT22;68469;51.502;7.462;2023-07-13T05:14:59;19.20;63.20
79065;DHT22;68469;51.502;7.462;2023-07-13T05:17:25;19.40;62.60
79065;DHT22;68469;51.502;7.462;2023-07-13T05:19:51;19.50;62.10
79065;DHT22;68469;51.502;7.462;2023-07-13T05:22:16;19.70;61.70
79065;DHT22;68469;51.502;7.462;2023-07-13T05:24:42;19.80;61.60
79065;DHT22;68469;51.502;7.462;2023-07-13T05:27:07;20.00;61.20
79065;DHT22;68469;51.502;7.462;2023-07-13T05:29:33;20.10;60.50
79065;DHT22;68469;51.502;7.462;2023-07-13T05:31:58;20.20;60.00
79065;DHT22;68469;51.502;7.462;2023-07-13T05:34:24;20.40;59.80
79065;DHT22;68469;51.502;7.462;2023-07-13T05:36:50;20.50;59.30
79065;DHT22;68469;51.502;7.462;2023-07-13T05:39:16;20.70;59.20
79065;DHT22;68469;51.502;7.462;2023-07-13T05:41:42;20.80;58.90
79065;DHT22;68469;51.502;7.462;2023-07-13T05:44:07;21.00;58.40
79065;DHT22;68469;51.502;7.462;2023-07-13T05:46:33;21.10;58.50
79065;DHT22;68469;51.502;7.462;2023-07-13T05:48:59;21.30;57.80
79065;DHT22;68469;51.502;7.462;2023-07-13T05:51:24;21.30;57.80
79065;DHT22;68469;51.502;7.462;2023-07-13T05:53:50;21.50;57.00
79065;DHT22;68469;51.502;7.462;2023-07-13T05:56:16;21.60;57.00
79065;DHT22;68469;51.502;7.462;2023-07-13T05:58:41;21.80;56.80
79065;DHT22;68469;51.502;7.462;2023-07-13T06:01:10;22.00;56.60
79065;DHT22;68469;51.502;7.462;2023-07-13T06:03:36;22.30;56.10
79065;DHT22;68469;51.502;7.462;2023-07-13T06:06:05;22.30;56.10
79065;DHT22;68469;51.502;7.462;2023-07-13T06:08:31;22.50;56.00
79065;DHT22;68469;51.502;7.462;2023-07-13T06:11:05;22.60;55.50
79065;DHT22;68469;51.502;7.462;2023-07-13T06:13:31;22.70;54.90
79065;DHT22;68469;51.502;7.462;2023-07-13T06:15:57;22.80;55.00
79065;DHT22;68469;51.502;7.462;2023-07-13T06:18:23;22.80;55.00
79065;DHT22;68469;51.502;7.462;2023-07-13T06:20:48;22.70;54.80
79065;DHT22;68469;51.502;7.462;2023-07-13T06:23:14;22.70;55.20
79065;DHT22;68469;51.502;7.462;2023-07-13T06:25:40;22.80;55.10
79065;DHT22;68469;51.502;7.462;2023-07-13T06:28:06;22.80;54.90
79065;DHT22;68469;51.502;7.462;2023-07-13T06:30:31;22.80;54.80
79065;DHT22;68469;51.502;7.462;2023-07-13T06:32:57;22.70;55.00
79065;DHT22;68469;51.502;7.462;2023-07-13T06:35:23;22.60;55.40
79065;DHT22;68469;51.502;7.462;2023-07-13T06:37:48;22.50;55.40
79065;DHT22;68469;51.502;7.462;2023-07-13T06:40:14;22.40;55.80
79065;DHT22;68469;51.502;7.462;2023-07-13T06:42:39;22.40;56.00
79065;DHT22;68469;51.502;7.462;2023-07-13T06:45:05;22.30;56.00
79065;DHT22;68469;51.502;7.462;2023-07-13T06:47:31;22.30;56.70
79065;DHT22;68469;51.502;7.462;2023-07-13T06:49:57;22.40;56.90
79065;DHT22;68469;51.502;7.462;2023-07-13T06:52:23;22.50;56.60
79065;DHT22;68469;51.502;7.462;2023-07-13T06:54:48;22.60;56.30
79065;DHT22;68469;51.502;7.462;2023-07-13T06:57:14;22.60;56.60
79065;DHT22;68469;51.502;7.462;2023-07-13T06:59:40;22.70;56.50
79065;DHT22;68469;51.502;7.462;2023-07-13T07:02:06;22.80;57.20
79065;DHT22;68469;51.502;7.462;2023-07-13T07:04:33;22.80;56.50
79065;DHT22;68469;51.502;7.462;2023-07-13T07:06:58;22.90;56.00
79065;DHT22;68469;51.502;7.462;2023-07-13T07:09:24;23.20;56.20
79065;DHT22;68469;51.502;7.462;2023-07-13T07:11:50;23.20;55.50
79065;DHT22;68469;51.502;7.462;2023-07-13T07:14:15;23.60;54.80
79065;DHT22;68469;51.502;7.462;2023-07-13T07:16:41;23.90;54.00
79065;DHT22;68469;51.502;7.462;2023-07-13T07:19:06;24.10;53.90
79065;DHT22;68469;51.502;7.462;2023-07-13T07:21:32;24.40;52.70
79065;DHT22;68469;51.502;7.462;2023-07-13T07:23:58;24.60;52.20
79065;DHT22;68469;51.502;7.462;2023-07-13T07:26:25;24.70;51.90
79065;DHT22;68469;51.502;7.462;2023-07-13T07:28:50;24.70;51.50
79065;DHT22;68469;51.502;7.462;2023-07-13T07:31:16;24.70;51.20
79065;DHT22;68469;51.502;7.462;2023-07-13T07:33:42;24.80;51.20
79065;DHT22;68469;51.502;7.462;2023-07-13T07:36:08;24.80;50.90
79065;DHT22;68469;51.502;7.462;2023-07-13T07:38:34;24.90;51.10
79065;DHT22;68469;51.502;7.462;2023-07-13T07:41:02;25.10;50.50
79065;DHT22;68469;51.502;7.462;2023-07-13T07:43:28;25.30;50.10
79065;DHT22;68469;51.502;7.462;2023-07-13T07:45:54;25.50;50.00
79065;DHT22;68469;51.502;7.462;2023-07-13T07:48:20;25.60;49.70
79065;DHT22;68469;51.502;7.462;2023-07-13T07:50:46;25.80;49.30
79065;DHT22;68469;51.502;7.462;2023-07-13T07:53:11;25.90;47.90
79065;DHT22;68469;51.502;7.462;2023-07-13T07:55:38;26.00;48.00
79065;DHT22;68469;51.502;7.462;2023-07-13T07:58:04;26.10;48.10
79065;DHT22;68469;51.502;7.462;2023-07-13T08:00:29;26.20;47.90
79065;DHT22;68469;51.502;7.462;2023-07-13T08:02:57;26.30;47.90
79065;DHT22;68469;51.502;7.462;2023-07-13T08:05:23;26.40;47.50
79065;DHT22;68469;51.502;7.462;2023-07-13T08:07:48;26.40;47.80
79065;DHT22;68469;51.502;7.462;2023-07-13T08:10:16;26.60;47.90
79065;DHT22;68469;51.502;7.462;2023-07-13T08:12:42;26.70;47.30
79065;DHT22;68469;51.502;7.462;2023-07-13T08:15:11;26.70;47.10
79065;DHT22;68469;51.502;7.462;2023-07-13T08:17:38;26.70;46.50
79065;DHT22;68469;51.502;7.462;2023-07-13T08:20:03;26.60;46.60
79065;DHT22;68469;51.502;7.462;2023-07-13T08:22:29;26.70;46.50
79065;DHT22;68469;51.502;7.462;2023-07-13T08:24:55;26.70;45.90
79065;DHT22;68469;51.502;7.462;2023-07-13T08:27:24;26.80;45.90
79065;DHT22;68469;51.502;7.462;2023-07-13T08:29:50;26.90;46.00
79065;DHT22;68469;51.502;7.462;2023-07-13T08:32:18;26.90;45.40
79065;DHT22;68469;51.502;7.462;2023-07-13T08:34:44;27.00;46.00
79065;DHT22;68469;51.502;7.462;2023-07-13T08:37:10;27.00;45.30
79065;DHT22;68469;51.502;7.462;2023-07-13T08:39:35;27.10;45.60
79065;DHT22;68469;51.502;7.462;2023-07-13T08:45:42;27.30;45.50
79065;DHT22;68469;51.502;7.462;2023-07-13T08:48:26;27.30;46.10
79065;DHT22;68469;51.502;7.462;2023-07-13T08:53:23;27.20;46.00
79065;DHT22;68469;51.502;7.462;2023-07-13T08:55:51;26.90;45.90
79065;DHT22;68469;51.502;7.462;2023-07-13T08:58:20;26.80;46.40
79065;DHT22;68469;51.502;7.462;2023-07-13T09:03:33;26.20;47.30
79065;DHT22;68469;51.502;7.462;2023-07-13T09:05:59;26.10;47.70
79065;DHT22;68469;51.502;7.462;2023-07-13T09:08:43;26.10;47.80
79065;DHT22;68469;51.502;7.462;2023-07-13T09:17:04;26.60;46.50
79065;DHT22;68469;51.502;7.462;2023-07-13T09:19:32;26.80;46.50
79065;DHT22;68469;51.502;7.462;2023-07-13T09:21:59;26.90;46.00
79065;DHT22;68469;51.502;7.462;2023-07-13T09:24:36;27.10;46.20
79065;DHT22;68469;51.502;7.462;2023-07-13T09:27:12;27.10;46.00
79065;DHT22;68469;51.502;7.462;2023-07-13T09:29:42;27.00;46.10
79065;DHT22;68469;51.502;7.462;2023-07-13T09:32:12;26.90;46.60
79065;DHT22;68469;51.502;7.462;2023-07-13T09:34:40;26.80;47.20
79065;DHT22;68469;51.502;7.462;2023-07-13T09:37:05;26.90;46.20
79065;DHT22;68469;51.502;7.462;2023-07-13T09:39:39;27.10;45.80
79065;DHT22;68469;51.502;7.462;2023-07-13T09:42:16;27.10;45.10
79065;DHT22;68469;51.502;7.462;2023-07-13T09:44:55;27.30;45.40
79065;DHT22;68469;51.502;7.462;2023-07-13T09:50:14;27.70;43.90
79065;DHT22;68469;51.502;7.462;2023-07-13T09:52:43;27.80;43.60
79065;DHT22;68469;51.502;7.462;2023-07-13T09:55:27;27.90;43.60
79065;DHT22;68469;51.502;7.462;2023-07-13T09:57:54;28.10;43.70
79065;DHT22;68469;51.502;7.462;2023-07-13T10:00:26;28.40;42.90
79065;DHT22;68469;51.502;7.462;2023-07-13T10:05:40;28.40;43.10
79065;DHT22;68469;51.502;7.462;2023-07-13T10:08:08;28.30;43.20
79065;DHT22;68469;51.502;7.462;2023-07-13T10:10:39;28.40;43.80
79065;DHT22;68469;51.502;7.462;2023-07-13T10:13:08;28.30;43.40
79065;DHT22;68469;51.502;7.462;2023-07-13T10:15:45;28.20;42.90
79065;DHT22;68469;51.502;7.462;2023-07-13T10:18:11;28.20;43.30
79065;DHT22;68469;51.502;7.462;2023-07-13T10:20:37;28.50;43.00
79065;DHT22;68469;51.502;7.462;2023-07-13T10:23:05;28.30;42.80
79065;DHT22;68469;51.502;7.462;2023-07-13T10:25:39;28.00;42.70
79065;DHT22;68469;51.502;7.462;2023-07-13T10:28:21;27.90;43.20
79065;DHT22;68469;51.502;7.462;2023-07-13T10:30:49;28.50;43.50
79065;DHT22;68469;51.502;7.462;2023-07-13T10:33:18;29.10;42.50
79065;DHT22;68469;51.502;7.462;2023-07-13T10:35:45;29.80;41.70
79065;DHT22;68469;51.502;7.462;2023-07-13T10:38:21;30.30;40.90
79065;DHT22;68469;51.502;7.462;2023-07-13T10:41:10;30.40;40.10
79065;DHT22;68469;51.502;7.462;2023-07-13T10:43:44;30.30;39.00
79065;DHT22;68469;51.502;7.462;2023-07-13T10:46:13;29.90;38.80
79065;DHT22;68469;51.502;7.462;2023-07-13T10:48:42;30.00;40.10
79065;DHT22;68469;51.502;7.462;2023-07-13T10:51:10;30.10;39.50
79065;DHT22;68469;51.502;7.462;2023-07-13T10:53:37;30.80;39.70
79065;DHT22;68469;51.502;7.462;2023-07-13T10:56:28;32.00;37.60
79065;DHT22;68469;51.502;7.462;2023-07-13T11:01:57;31.90;36.30
79065;DHT22;68469;51.502;7.462;2023-07-13T11:04:25;31.00;36.80
79065;DHT22;68469;51.502;7.462;2023-07-13T11:06:57;30.30;38.50
79065;DHT22;68469;51.502;7.462;2023-07-13T11:09:36;30.00;39.60
79065;DHT22;68469;51.502;7.462;2023-07-13T11:14:36;29.50;40.30
79065;DHT22;68469;51.502;7.462;2023-07-13T11:22:46;29.10;41.00
79065;DHT22;68469;51.502;7.462;2023-07-13T11:35:44;35.20;33.40
79065;DHT22;68469;51.502;7.462;2023-07-13T11:38:19;36.80;31.10
79065;DHT22;68469;51.502;7.462;2023-07-13T11:40:47;38.50;28.90
79065;DHT22;68469;51.502;7.462;2023-07-13T11:43:15;39.30;27.70
79065;DHT22;68469;51.502;7.462;2023-07-13T11:45:42;39.30;27.60
79065;DHT22;68469;51.502;7.462;2023-07-13T11:48:29;39.60;28.40
79065;DHT22;68469;51.502;7.462;2023-07-13T11:51:03;40.40;28.00
79065;DHT22;68469;51.502;7.462;2023-07-13T11:53:45;41.40;27.10
79065;DHT22;68469;51.502;7.462;2023-07-13T11:56:11;41.90;26.30
79065;DHT22;68469;51.502;7.462;2023-07-13T11:58:36;42.90;25.90
79065;DHT22;68469;51.502;7.462;2023-07-13T12:01:03;43.40;25.00
79065;DHT22;68469;51.502;7.462;2023-07-13T12:03:33;43.80;24.70
79065;DHT22;68469;51.502;7.462;2023-07-13T12:06:29;44.30;24.40
79065;DHT22;68469;51.502;7.462;2023-07-13T12:09:00;43.90;24.40
79065;DHT22;68469;51.502;7.462;2023-07-13T12:11:27;43.30;24.70
79065;DHT22;68469;51.502;7.462;2023-07-13T12:13:53;43.70;25.00
79065;DHT22;68469;51.502;7.462;2023-07-13T12:16:29;43.70;24.60
79065;DHT22;68469;51.502;7.462;2023-07-13T12:18:56;43.80;25.10
79065;DHT22;68469;51.502;7.462;2023-07-13T12:21:37;42.90;24.90
79065;DHT22;68469;51.502;7.462;2023-07-13T12:24:04;43.40;25.70
79065;DHT22;68469;51.502;7.462;2023-07-13T12:26:31;44.20;25.00
79065;DHT22;68469;51.502;7.462;2023-07-13T12:29:00;44.50;24.50
79065;DHT22;68469;51.502;7.462;2023-07-13T12:31:36;44.30;24.20
79065;DHT22;68469;51.502;7.462;2023-07-13T12:34:16;43.50;24.50
79065;DHT22;68469;51.502;7.462;2023-07-13T12:36:49;43.40;24.40
79065;DHT22;68469;51.502;7.462;2023-07-13T12:39:20;42.20;24.60
79065;DHT22;68469;51.502;7.462;2023-07-13T12:41:48;41.30;25.50
79065;DHT22;68469;51.502;7.462;2023-07-13T12:44:28;41.90;25.70
79065;DHT22;68469;51.502;7.462;2023-07-13T12:47:02;42.10;25.50
79065;DHT22;68469;51.502;7.462;2023-07-13T12:49:31;40.50;25.20
79065;DHT22;68469;51.502;7.462;2023-07-13T12:52:02;38.70;26.90
79065;DHT22;68469;51.502;7.462;2023-07-13T12:54:29;37.20;27.90
79065;DHT22;68469;51.502;7.462;2023-07-13T12:56:57;35.90;28.70
79065;DHT22;68469;51.502;7.462;2023-07-13T12:59:26;34.50;30.00
79065;DHT22;68469;51.502;7.462;2023-07-13T13:01:55;33.40;31.10
79065;DHT22;68469;51.502;7.462;2023-07-13T13:04:21;32.70;32.60
79065;DHT22;68469;51.502;7.462;2023-07-13T13:06:48;32.00;33.20
79065;DHT22;68469;51.502;7.462;2023-07-13T13:09:15;31.40;34.50
79065;DHT22;68469;51.502;7.462;2023-07-13T13:11:42;30.70;34.70
79065;DHT22;68469;51.502;7.462;2023-07-13T13:14:08;30.40;35.80
79065;DHT22;68469;51.502;7.462;2023-07-13T13:16:47;30.00;35.70
79065;DHT22;68469;51.502;7.462;2023-07-13T13:19:19;29.50;36.50
79065;DHT22;68469;51.502;7.462;2023-07-13T13:21:47;29.20;37.60
79065;DHT22;68469;51.502;7.462;2023-07-13T13:24:22;29.10;37.20
79065;DHT22;68469;51.502;7.462;2023-07-13T13:26:50;28.90;38.50
79065;DHT22;68469;51.502;7.462;2023-07-13T13:29:19;28.70;39.00
79065;DHT22;68469;51.502;7.462;2023-07-13T13:31:45;28.50;39.00
79065;DHT22;68469;51.502;7.462;2023-07-13T13:34:13;28.40;38.90
79065;DHT22;68469;51.502;7.462;2023-07-13T13:36:40;28.20;38.50
79065;DHT22;68469;51.502;7.462;2023-07-13T13:39:18;28.20;39.50
79065;DHT22;68469;51.502;7.462;2023-07-13T13:41:45;28.10;39.40
79065;DHT22;68469;51.502;7.462;2023-07-13T13:44:12;28.00;39.30
79065;DHT22;68469;51.502;7.462;2023-07-13T13:46:38;27.80;39.50
79065;DHT22;68469;51.502;7.462;2023-07-13T13:49:04;27.60;40.70
79065;DHT22;68469;51.502;7.462;2023-07-13T13:51:29;27.20;41.60
79065;DHT22;68469;51.502;7.462;2023-07-13T13:53:55;26.80;42.80
79065;DHT22;68469;51.502;7.462;2023-07-13T13:56:21;26.30;43.60
79065;DHT22;68469;51.502;7.462;2023-07-13T13:58:47;25.90;44.00
79065;DHT22;68469;51.502;7.462;2023-07-13T14:01:22;25.70;45.30
79065;DHT22;68469;51.502;7.462;2023-07-13T14:03:50;25.50;47.00
79065;DHT22;68469;51.502;7.462;2023-07-13T14:06:17;25.30;46.50
79065;DHT22;68469;51.502;7.462;2023-07-13T14:08:43;25.00;47.00
79065;DHT22;68469;51.502;7.462;2023-07-13T14:11:13;24.80;48.40
79065;DHT22;68469;51.502;7.462;2023-07-13T14:13:43;24.60;50.50
79065;DHT22;68469;51.502;7.462;2023-07-13T14:16:12;24.50;51.50
79065;DHT22;68469;51.502;7.462;2023-07-13T14:18:38;24.40;50.60
79065;DHT22;68469;51.502;7.462;2023-07-13T14:21:12;24.40;51.00
79065;DHT22;68469;51.502;7.462;2023-07-13T14:23:38;24.50;50.80
79065;DHT22;68469;51.502;7.462;2023-07-13T14:26:14;24.50;50.60
79065;DHT22;68469;51.502;7.462;2023-07-13T14:28:43;24.50;50.60
79065;DHT22;68469;51.502;7.462;2023-07-13T14:31:10;24.50;50.20
79065;DHT22;68469;51.502;7.462;2023-07-13T14:33:35;24.50;50.40
79065;DHT22;68469;51.502;7.462;2023-07-13T14:36:03;24.50;50.20
79065;DHT22;68469;51.502;7.462;2023-07-13T14:38:33;24.60;50.70
79065;DHT22;68469;51.502;7.462;2023-07-13T14:40:59;24.70;50.10
79065;DHT22;68469;51.502;7.462;2023-07-13T14:43:24;24.70;50.00
79065;DHT22;68469;51.502;7.462;2023-07-13T14:45:53;24.90;49.40
79065;DHT22;68469;51.502;7.462;2023-07-13T14:48:23;24.80;50.30
79065;DHT22;68469;51.502;7.462;2023-07-13T14:50:56;24.70;50.10
79065;DHT22;68469;51.502;7.462;2023-07-13T14:53:22;24.60;50.40
79065;DHT22;68469;51.502;7.462;2023-07-13T14:55:48;24.40;50.40
79065;DHT22;68469;51.502;7.462;2023-07-13T14:58:14;24.20;50.90
79065;DHT22;68469;51.502;7.462;2023-07-13T15:00:40;23.90;52.20
79065;DHT22;68469;51.502;7.462;2023-07-13T15:03:08;23.40;72.90
79065;DHT22;68469;51.502;7.462;2023-07-13T15:05:39;22.70;83.70
79065;DHT22;68469;51.502;7.462;2023-07-13T15:08:05;22.00;87.90
79065;DHT22;68469;51.502;7.462;2023-07-13T15:10:32;21.50;91.80
79065;DHT22;68469;51.502;7.462;2023-07-13T15:13:14;21.10;91.20
79065;DHT22;68469;51.502;7.462;2023-07-13T15:15:43;20.80;92.20
79065;DHT22;68469;51.502;7.462;2023-07-13T15:18:11;20.60;92.20
79065;DHT22;68469;51.502;7.462;2023-07-13T15:20:37;20.40;91.10
79065;DHT22;68469;51.502;7.462;2023-07-13T15:23:03;20.40;91.70
79065;DHT22;68469;51.502;7.462;2023-07-13T15:25:30;20.40;92.60
79065;DHT22;68469;51.502;7.462;2023-07-13T15:27:57;20.40;91.00
79065;DHT22;68469;51.502;7.462;2023-07-13T15:30:26;20.40;90.60
79065;DHT22;68469;51.502;7.462;2023-07-13T15:32:52;20.30;90.40
79065;DHT22;68469;51.502;7.462;2023-07-13T15:35:24;20.40;89.40
79065;DHT22;68469;51.502;7.462;2023-07-13T15:37:50;20.40;90.00
79065;DHT22;68469;51.502;7.462;2023-07-13T15:40:16;20.50;88.00
79065;DHT22;68469;51.502;7.462;2023-07-13T15:42:43;20.50;87.40
79065;DHT22;68469;51.502;7.462;2023-07-13T15:45:18;20.50;87.90
79065;DHT22;68469;51.502;7.462;2023-07-13T15:47:46;20.60;89.60
79065;DHT22;68469;51.502;7.462;2023-07-13T15:50:14;20.50;88.80
79065;DHT22;68469;51.502;7.462;2023-07-13T15:52:40;20.50;87.90
79065;DHT22;68469;51.502;7.462;2023-07-13T15:55:12;20.40;85.30
79065;DHT22;68469;51.502;7.462;2023-07-13T15:57:40;20.40;85.10
79065;DHT22;68469;51.502;7.462;2023-07-13T16:00:26;20.40;84.20
79065;DHT22;68469;51.502;7.462;2023-07-13T16:02:53;20.40;85.00
79065;DHT22;68469;51.502;7.462;2023-07-13T16:05:20;20.30;82.20
79065;DHT22;68469;51.502;7.462;2023-07-13T16:07:49;20.30;83.40
79065;DHT22;68469;51.502;7.462;2023-07-13T16:10:22;20.30;82.50
79065;DHT22;68469;51.502;7.462;2023-07-13T16:12:48;20.20;82.70
79065;DHT22;68469;51.502;7.462;2023-07-13T16:15:18;20.00;82.70
79065;DHT22;68469;51.502;7.462;2023-07-13T16:17:48;19.90;83.50
79065;DHT22;68469;51.502;7.462;2023-07-13T16:20:15;19.70;83.70
79065;DHT22;68469;51.502;7.462;2023-07-13T16:22:44;19.60;85.10
79065;DHT22;68469;51.502;7.462;2023-07-13T16:25:17;19.40;88.00